createdAt,value
2023-02-04T00:01:00.319Z,3.50
2023-02-04T00:03:26.872Z,3.50
2023-02-04T00:05:53.475Z,3.50
2023-02-04T00:08:20.084Z,3.60
2023-02-04T00:10:47.539Z,3.60
2023-02-04T00:13:14.066Z,3.60
2023-02-04T00:15:40.591Z,3.60
2023-02-04T00:18:07.229Z,3.60
2023-02-04T00:20:33.888Z,3.50
2023-02-04T00:23:00.421Z,3.60
2023-02-04T00:25:26.999Z,3.60
2023-02-04T00:27:53.594Z,3.60
2023-02-04T00:30:20.358Z,3.60
2023-02-04T00:32:46.849Z,3.60
2023-02-04T00:35:13.707Z,3.70
2023-02-04T00:37:40.303Z,3.70
2023-02-04T00:40:07.412Z,3.70
2023-02-04T00:42:33.908Z,3.70
2023-02-04T00:45:00.522Z,3.70
2023-02-04T00:47:27.056Z,3.80
2023-02-04T00:49:53.610Z,3.70
2023-02-04T00:52:20.170Z,3.50
2023-02-04T00:54:46.722Z,3.20
2023-02-04T00:57:13.298Z,2.70
2023-02-04T00:59:39.813Z,2.50
2023-02-04T01:02:06.432Z,2.40
2023-02-04T01:04:32.939Z,2.30
2023-02-04T01:06:59.450Z,2.30
2023-02-04T01:09:25.944Z,2.20
2023-02-04T01:11:52.661Z,2.20
2023-02-04T01:14:19.299Z,2.20
2023-02-04T01:16:45.866Z,2.20
2023-02-04T01:19:12.607Z,2.10
2023-02-04T01:21:40.973Z,2.10
2023-02-04T01:24:07.641Z,2.00
2023-02-04T01:26:34.150Z,2.00
2023-02-04T01:29:00.693Z,2.00
2023-02-04T01:31:28.292Z,2.00
2023-02-04T01:33:54.887Z,2.10
2023-02-04T01:36:21.740Z,2.10
2023-02-04T01:38:48.766Z,2.10
2023-02-04T01:41:16.094Z,2.10
2023-02-04T01:43:42.620Z,2.10
2023-02-04T01:46:09.331Z,2.10
2023-02-04T01:48:35.841Z,2.00
2023-02-04T01:51:07.393Z,2.00
2023-02-04T01:53:34.602Z,2.10
2023-02-04T01:56:01.685Z,2.20
2023-02-04T01:58:30.588Z,2.20
2023-02-04T02:00:57.112Z,2.20
2023-02-04T02:03:23.774Z,2.20
2023-02-04T02:05:52.011Z,2.20
2023-02-04T02:08:18.719Z,2.20
2023-02-04T02:10:48.898Z,2.20
2023-02-04T02:13:17.212Z,2.20
2023-02-04T02:15:43.921Z,2.20
2023-02-04T02:18:10.671Z,2.10
2023-02-04T02:20:37.502Z,2.10
2023-02-04T02:23:12.948Z,2.20
2023-02-04T02:25:40.048Z,2.20
2023-02-04T02:28:10.286Z,2.20
2023-02-04T02:30:37.196Z,2.20
2023-02-04T02:33:04.280Z,2.10
2023-02-04T02:35:30.906Z,2.00
2023-02-04T02:37:57.556Z,1.90
2023-02-04T02:40:24.262Z,1.80
2023-02-04T02:42:52.204Z,1.70
2023-02-04T02:45:23.276Z,1.80
2023-02-04T02:47:49.975Z,1.70
2023-02-04T02:50:19.635Z,1.70
2023-02-04T02:52:46.204Z,1.70
2023-02-04T02:55:17.583Z,1.70
2023-02-04T02:57:44.802Z,1.70
2023-02-04T03:00:14.043Z,1.80
2023-02-04T03:02:40.892Z,1.70
2023-02-04T03:05:07.513Z,1.70
2023-02-04T03:07:34.066Z,1.70
2023-02-04T03:10:00.638Z,1.70
2023-02-04T03:12:27.172Z,1.70
2023-02-04T03:14:53.668Z,1.80
2023-02-04T03:17:20.208Z,1.80
2023-02-04T03:19:46.751Z,1.90
2023-02-04T03:22:13.383Z,1.80
2023-02-04T03:24:40.018Z,1.90
2023-02-04T03:27:07.049Z,1.80
2023-02-04T03:29:33.796Z,1.80
2023-02-04T03:32:00.562Z,1.80
2023-02-04T03:34:27.285Z,1.80
2023-02-04T03:36:53.848Z,1.80
2023-02-04T03:39:20.364Z,1.80
2023-02-04T03:41:46.872Z,1.80
2023-02-04T03:44:13.385Z,1.80
2023-02-04T03:46:39.879Z,1.80
2023-02-04T03:49:06.497Z,1.90
2023-02-04T03:51:32.990Z,1.90
2023-02-04T03:53:59.507Z,1.80
2023-02-04T03:56:26.081Z,1.90
2023-02-04T03:58:52.574Z,1.90
2023-02-04T04:01:19.174Z,1.90
2023-02-04T04:03:45.796Z,1.80
2023-02-04T04:06:12.374Z,1.80
2023-02-04T04:08:39.005Z,1.90
2023-02-04T04:11:05.640Z,1.90
2023-02-04T04:13:32.128Z,1.90
2023-02-04T04:15:58.835Z,1.80
2023-02-04T04:18:25.360Z,1.80
2023-02-04T04:20:51.846Z,1.80
2023-02-04T04:23:18.358Z,1.80
2023-02-04T04:25:44.870Z,1.70
2023-02-04T04:28:11.479Z,1.70
2023-02-04T04:30:38.224Z,1.60
2023-02-04T04:33:04.863Z,1.50
2023-02-04T04:35:31.368Z,1.50
2023-02-04T04:37:57.900Z,1.50
2023-02-04T04:40:24.378Z,1.50
2023-02-04T04:42:50.998Z,1.40
2023-02-04T04:45:17.583Z,1.30
2023-02-04T04:47:44.142Z,1.30
2023-02-04T04:50:10.874Z,1.40
2023-02-04T04:52:37.489Z,1.30
2023-02-04T04:55:04.525Z,1.30
2023-02-04T04:57:31.130Z,1.30
2023-02-04T04:59:57.623Z,1.50
2023-02-04T05:02:24.180Z,1.40
2023-02-04T05:04:50.687Z,1.40
2023-02-04T05:07:17.337Z,1.30
2023-02-04T05:09:43.822Z,1.30
2023-02-04T05:12:10.340Z,1.40
2023-02-04T05:14:36.995Z,1.30
2023-02-04T05:17:03.676Z,1.40
2023-02-04T05:19:30.219Z,1.40
2023-02-04T05:21:57.646Z,1.40
2023-02-04T05:24:24.146Z,1.40
2023-02-04T05:26:50.657Z,1.40
2023-02-04T05:29:17.182Z,1.50
2023-02-04T05:31:43.767Z,1.40
2023-02-04T05:34:10.400Z,1.30
2023-02-04T05:36:36.940Z,1.40
2023-02-04T05:39:03.551Z,1.40
2023-02-04T05:41:30.116Z,1.40
2023-02-04T05:43:56.623Z,1.50
2023-02-04T05:46:23.145Z,1.40
2023-02-04T05:48:49.626Z,1.50
2023-02-04T05:51:16.319Z,1.50
2023-02-04T05:53:42.811Z,1.50
2023-02-04T05:56:09.358Z,1.50
2023-02-04T06:02:03.976Z,1.40
2023-02-04T06:04:30.578Z,1.30
2023-02-04T06:06:57.124Z,1.30
2023-02-04T06:09:23.667Z,1.30
2023-02-04T06:11:50.154Z,1.30
2023-02-04T06:14:16.672Z,1.30
2023-02-04T06:16:43.230Z,1.20
2023-02-04T06:19:09.874Z,1.10
2023-02-04T06:21:36.376Z,1.20
2023-02-04T06:24:04.254Z,1.20
2023-02-04T06:26:31.868Z,1.20
2023-02-04T06:28:58.387Z,1.10
2023-02-04T06:31:24.983Z,1.10
2023-02-04T06:33:51.524Z,1.10
2023-02-04T06:36:18.081Z,1.10
2023-02-04T06:38:44.616Z,1.20
2023-02-04T06:41:11.129Z,1.20
2023-02-04T06:43:37.646Z,1.20
2023-02-04T06:46:04.236Z,1.20
2023-02-04T06:48:31.256Z,1.30
2023-02-04T06:50:57.885Z,1.20
2023-02-04T06:53:24.449Z,1.10
2023-02-04T06:55:52.541Z,1.10
2023-02-04T06:58:19.069Z,1.20
2023-02-04T07:00:45.595Z,1.10
2023-02-04T07:03:12.077Z,1.00
2023-02-04T07:05:38.625Z,1.10
2023-02-04T07:08:05.328Z,1.10
2023-02-04T07:10:33.142Z,1.20
2023-02-04T07:12:59.885Z,1.20
2023-02-04T07:15:26.432Z,1.20
2023-02-04T07:17:53.928Z,1.20
2023-02-04T07:20:20.454Z,1.20
2023-02-04T07:22:46.997Z,1.10
2023-02-04T07:25:15.957Z,1.10
2023-02-04T07:27:42.565Z,1.10
2023-02-04T07:30:10.114Z,1.10
2023-02-04T07:32:36.631Z,1.10
2023-02-04T07:35:03.332Z,1.20
2023-02-04T07:37:29.839Z,1.10
2023-02-04T07:39:56.425Z,1.10
2023-02-04T07:42:22.942Z,1.10
2023-02-04T07:44:49.432Z,1.20
2023-02-04T07:47:15.955Z,1.20
2023-02-04T07:49:42.637Z,1.10
2023-02-04T07:52:09.720Z,1.20
2023-02-04T07:54:36.212Z,1.20
2023-02-04T07:57:02.755Z,1.20
2023-02-04T07:59:29.345Z,1.20
2023-02-04T08:01:55.899Z,1.30
2023-02-04T08:04:22.394Z,1.40
2023-02-04T08:06:49.041Z,1.40
2023-02-04T08:09:15.534Z,1.40
2023-02-04T08:11:42.089Z,1.40
2023-02-04T08:14:08.618Z,1.40
2023-02-04T08:16:35.123Z,1.30
2023-02-04T08:19:01.629Z,1.30
2023-02-04T08:21:28.123Z,1.30
2023-02-04T08:23:54.623Z,1.30
2023-02-04T08:26:21.593Z,1.40
2023-02-04T08:28:48.178Z,1.40
2023-02-04T08:31:14.773Z,1.40
2023-02-04T08:33:41.416Z,1.50
2023-02-04T08:36:08.139Z,1.50
2023-02-04T08:38:34.889Z,1.60
2023-02-04T08:41:01.819Z,1.70
2023-02-04T08:43:28.411Z,1.80
2023-02-04T08:45:54.901Z,1.80
2023-02-04T08:48:21.515Z,1.80
2023-02-04T08:50:48.008Z,1.90
2023-02-04T08:53:14.525Z,1.90
2023-02-04T08:55:41.073Z,1.90
2023-02-04T08:58:07.588Z,1.90
2023-02-04T09:00:34.564Z,2.00
2023-02-04T09:03:01.312Z,2.00
2023-02-04T09:05:27.859Z,2.00
2023-02-04T09:07:54.422Z,1.90
2023-02-04T09:10:20.919Z,1.90
2023-02-04T09:12:48.072Z,1.90
2023-02-04T09:15:14.595Z,2.10
2023-02-04T09:17:43.749Z,2.10
2023-02-04T09:20:10.558Z,2.20
2023-02-04T09:22:37.765Z,2.20
2023-02-04T09:25:04.424Z,2.30
2023-02-04T09:27:31.045Z,2.40
2023-02-04T09:29:57.637Z,2.40
2023-02-04T09:32:24.215Z,2.50
2023-02-04T09:34:50.709Z,2.60
2023-02-04T09:37:17.282Z,2.80
2023-02-04T09:39:43.774Z,2.80
2023-02-04T09:42:13.557Z,3.00
2023-02-04T09:44:40.177Z,3.00
2023-02-04T09:47:06.761Z,3.10
2023-02-04T09:49:33.528Z,3.00
2023-02-04T09:52:00.571Z,3.00
2023-02-04T09:54:27.057Z,3.00
2023-02-04T09:56:53.612Z,2.90
2023-02-04T09:59:22.126Z,2.80
2023-02-04T10:01:53.861Z,2.70
2023-02-04T10:04:21.761Z,2.50
2023-02-04T10:06:48.469Z,2.40
2023-02-04T10:09:15.960Z,2.40
2023-02-04T10:11:44.025Z,2.40
2023-02-04T10:14:19.517Z,2.50
2023-02-04T10:16:58.777Z,2.60
2023-02-04T10:19:26.818Z,2.70
2023-02-04T10:21:53.386Z,2.80
2023-02-04T10:24:21.379Z,2.80
2023-02-04T10:26:48.327Z,2.90
2023-02-04T10:29:16.545Z,3.00
2023-02-04T10:31:47.676Z,3.00
2023-02-04T10:34:14.277Z,3.10
2023-02-04T10:36:42.367Z,3.10
2023-02-04T10:39:16.351Z,3.20
2023-02-04T10:41:49.440Z,3.20
2023-02-04T10:44:17.162Z,3.00
2023-02-04T10:46:43.826Z,2.80
2023-02-04T10:49:24.312Z,2.60
2023-02-04T10:51:52.617Z,2.50
2023-02-04T10:54:32.261Z,2.30
2023-02-04T10:57:08.898Z,2.30
2023-02-04T10:59:36.359Z,2.30
2023-02-04T11:02:11.581Z,2.10
2023-02-04T11:04:38.082Z,2.20
2023-02-04T11:07:04.579Z,2.20
2023-02-04T11:09:31.081Z,2.30
2023-02-04T11:11:57.876Z,2.40
2023-02-04T11:14:28.787Z,2.60
2023-02-04T11:17:00.746Z,2.80
2023-02-04T11:19:31.615Z,3.00
2023-02-04T11:22:05.103Z,3.20
2023-02-04T11:24:33.167Z,3.30
2023-02-04T11:27:07.073Z,3.50
2023-02-04T11:29:35.873Z,3.40
2023-02-04T11:32:07.073Z,3.40
2023-02-04T11:34:46.286Z,3.40
2023-02-04T11:37:15.212Z,3.50
2023-02-04T11:39:46.506Z,3.30
2023-02-04T11:42:20.813Z,3.40
2023-02-04T11:44:52.617Z,3.30
2023-02-04T11:47:19.420Z,3.40
2023-02-04T11:49:52.689Z,3.30
2023-02-04T11:52:19.243Z,3.30
2023-02-04T11:54:52.497Z,3.10
2023-02-04T11:57:20.158Z,3.10
2023-02-04T11:59:46.695Z,3.10
2023-02-04T12:02:17.710Z,3.20
2023-02-04T12:04:54.746Z,3.30
2023-02-04T12:07:23.302Z,3.30
2023-02-04T12:09:49.811Z,3.30
2023-02-04T12:12:23.208Z,3.50
2023-02-04T12:14:56.189Z,3.50
2023-02-04T12:17:22.694Z,3.50
2023-02-04T12:19:49.197Z,3.50
2023-02-04T12:22:15.702Z,3.50
2023-02-04T12:24:42.843Z,3.40
2023-02-04T12:27:09.330Z,3.30
2023-02-04T12:29:35.814Z,3.20
2023-02-04T12:32:02.442Z,3.00
2023-02-04T12:34:29.008Z,2.90
2023-02-04T12:36:55.579Z,3.00
2023-02-04T12:39:22.199Z,3.00
2023-02-04T12:41:48.709Z,3.00
2023-02-04T12:44:17.197Z,3.20
2023-02-04T12:46:43.783Z,3.30
2023-02-04T12:49:12.977Z,3.50
2023-02-04T12:51:39.464Z,3.50
2023-02-04T12:54:08.736Z,3.50
2023-02-04T12:56:35.296Z,3.60
2023-02-04T12:59:01.845Z,3.60
2023-02-04T13:01:29.640Z,3.60
2023-02-04T13:03:56.133Z,3.50
2023-02-04T13:06:22.639Z,3.30
2023-02-04T13:08:49.127Z,3.40
2023-02-04T13:11:15.668Z,3.50
2023-02-04T13:13:42.159Z,3.50
2023-02-04T13:16:08.713Z,3.40
2023-02-04T13:18:35.460Z,3.30
2023-02-04T13:21:01.978Z,3.30
2023-02-04T13:23:28.492Z,3.20
2023-02-04T13:25:55.004Z,3.10
2023-02-04T13:28:21.556Z,3.00
2023-02-04T13:30:48.180Z,2.90
2023-02-04T13:33:14.670Z,2.80
2023-02-04T13:35:43.434Z,2.90
2023-02-04T13:38:10.069Z,2.90
2023-02-04T13:40:36.598Z,2.80
2023-02-04T13:43:03.088Z,2.80
2023-02-04T13:45:29.832Z,2.90
2023-02-04T13:47:56.534Z,2.90
2023-02-04T13:50:23.038Z,3.00
2023-02-04T13:52:49.556Z,3.00
2023-02-04T13:55:16.079Z,3.10
2023-02-04T13:57:42.583Z,3.10
2023-02-04T14:00:10.864Z,3.30
2023-02-04T14:02:37.360Z,3.40
2023-02-04T14:05:03.957Z,3.40
2023-02-04T14:07:30.493Z,3.40
2023-02-04T14:09:57.043Z,3.40
2023-02-04T14:12:23.537Z,3.40
2023-02-04T14:14:50.062Z,3.30
2023-02-04T14:17:17.774Z,3.20
2023-02-04T14:19:44.274Z,3.10
2023-02-04T14:22:13.908Z,3.00
2023-02-04T14:24:42.567Z,3.00
2023-02-04T14:27:09.667Z,3.00
2023-02-04T14:29:36.176Z,3.00
2023-02-04T14:32:02.748Z,3.00
2023-02-04T14:34:29.381Z,3.00
2023-02-04T14:36:55.926Z,2.90
2023-02-04T14:39:22.457Z,2.90
2023-02-04T14:41:49.008Z,2.80
2023-02-04T14:44:20.540Z,2.80
2023-02-04T14:46:48.688Z,2.90
2023-02-04T14:49:15.852Z,2.90
2023-02-04T14:51:42.400Z,3.10
2023-02-04T14:54:08.920Z,3.10
2023-02-04T14:56:35.517Z,3.20
2023-02-04T14:59:02.032Z,3.20
2023-02-04T15:01:28.651Z,3.30
2023-02-04T15:03:55.290Z,3.20
2023-02-04T15:06:21.835Z,3.20
2023-02-04T15:08:48.331Z,3.10
2023-02-04T15:11:15.066Z,3.10
2023-02-04T15:13:41.675Z,3.00
2023-02-04T15:16:08.184Z,2.90
2023-02-04T15:18:35.003Z,2.90
2023-02-04T15:21:01.596Z,2.80
2023-02-04T15:23:28.345Z,2.80
2023-02-04T15:25:57.431Z,2.80
2023-02-04T15:28:24.355Z,2.80
2023-02-04T15:30:51.047Z,2.80
2023-02-04T15:33:17.678Z,2.70
2023-02-04T15:35:44.200Z,2.70
2023-02-04T15:38:10.727Z,2.60
2023-02-04T15:40:37.379Z,2.50
2023-02-04T15:43:03.888Z,2.40
2023-02-04T15:45:30.468Z,2.30
2023-02-04T15:47:56.985Z,2.30
2023-02-04T15:50:23.630Z,2.30
2023-02-04T15:52:50.154Z,2.30
2023-02-04T15:55:16.639Z,2.30
2023-02-04T15:57:43.200Z,2.30
2023-02-04T16:00:10.099Z,2.20
2023-02-04T16:02:36.669Z,2.20
2023-02-04T16:05:03.260Z,2.20
2023-02-04T16:07:29.846Z,2.20
2023-02-04T16:09:56.335Z,2.20
2023-02-04T16:12:22.936Z,2.20
2023-02-04T16:14:49.466Z,2.20
2023-02-04T16:17:17.286Z,2.20
2023-02-04T16:19:45.328Z,2.10
2023-02-04T16:22:12.117Z,2.10
2023-02-04T16:24:38.800Z,2.10
2023-02-04T16:27:05.524Z,2.00
2023-02-04T16:29:32.030Z,1.90
2023-02-04T16:31:58.609Z,1.90
2023-02-04T16:34:25.110Z,1.90
2023-02-04T16:36:51.623Z,1.90
2023-02-04T16:39:18.106Z,1.90
2023-02-04T16:41:44.601Z,1.90
2023-02-04T16:44:11.118Z,1.90
2023-02-04T16:46:37.751Z,1.90
2023-02-04T16:49:05.013Z,1.90
2023-02-04T16:51:31.535Z,1.90
2023-02-04T16:53:58.112Z,1.90
2023-02-04T16:56:24.853Z,1.80
2023-02-04T16:58:51.372Z,1.70
2023-02-04T17:01:18.003Z,1.60
2023-02-04T17:03:44.550Z,1.50
2023-02-04T17:06:14.065Z,1.50
2023-02-04T17:08:40.681Z,1.50
2023-02-04T17:11:26.108Z,1.50
2023-02-04T17:13:52.623Z,1.50
2023-02-04T17:16:19.644Z,1.40
2023-02-04T17:18:46.278Z,1.40
2023-02-04T17:21:12.842Z,1.30
2023-02-04T17:23:39.762Z,1.30
2023-02-04T17:26:06.434Z,1.30
2023-02-04T17:28:32.920Z,1.20
2023-02-04T17:30:59.702Z,1.30
2023-02-04T17:33:26.495Z,1.30
2023-02-04T17:35:53.052Z,1.20
2023-02-04T17:38:19.724Z,1.20
2023-02-04T17:40:46.604Z,1.10
2023-02-04T17:43:13.105Z,1.10
2023-02-04T17:45:39.676Z,1.10
2023-02-04T17:48:06.193Z,1.10
2023-02-04T17:53:08.619Z,1.00
2023-02-04T17:55:35.784Z,1.00
2023-02-04T17:58:10.621Z,1.00
2023-02-04T18:00:37.281Z,1.00
2023-02-04T18:03:04.006Z,1.00
2023-02-04T18:05:30.842Z,1.00
2023-02-04T18:08:14.097Z,0.90
2023-02-04T18:10:42.313Z,0.80
2023-02-04T18:13:14.871Z,0.90
2023-02-04T18:15:43.201Z,0.90
2023-02-04T18:18:24.772Z,0.80
2023-02-04T18:20:58.149Z,0.80
2023-02-04T18:23:25.179Z,0.80
2023-02-04T18:25:51.864Z,0.70
2023-02-04T18:28:19.633Z,0.80
2023-02-04T18:30:47.590Z,0.70
2023-02-04T18:33:24.786Z,0.70
2023-02-04T18:35:51.761Z,0.60
2023-02-04T18:38:25.929Z,0.60
2023-02-04T18:40:56.805Z,0.60
2023-02-04T18:43:23.518Z,0.70
2023-02-04T18:45:50.365Z,0.70
2023-02-04T18:48:19.664Z,0.60
2023-02-04T18:50:49.116Z,0.60
2023-02-04T18:53:16.193Z,0.50
2023-02-04T18:55:47.543Z,0.50
2023-02-04T18:58:17.153Z,0.50
2023-02-04T19:00:48.030Z,0.50
2023-02-04T19:03:14.597Z,0.40
2023-02-04T19:05:43.605Z,0.40
2023-02-04T19:08:17.773Z,0.30
2023-02-04T19:10:44.734Z,0.20
2023-02-04T19:13:34.811Z,0.10
2023-02-04T19:16:04.624Z,0.00
2023-02-04T19:18:38.712Z,-0.10
2023-02-04T19:21:15.287Z,-0.20
2023-02-04T19:23:42.179Z,-0.30
2023-02-04T19:26:27.283Z,-0.30
2023-02-04T19:28:55.086Z,-0.40
2023-02-04T19:31:22.048Z,-0.40
2023-02-04T19:33:50.454Z,-0.50
2023-02-04T19:36:21.766Z,-0.60
2023-02-04T19:38:52.052Z,-0.60
2023-02-04T19:41:28.709Z,-0.70
2023-02-04T19:44:10.459Z,-0.70
2023-02-04T19:46:37.075Z,-0.70
2023-02-04T19:49:17.007Z,-0.80
2023-02-04T19:51:45.899Z,-0.80
2023-02-04T19:54:23.005Z,-0.80
2023-02-04T19:56:49.957Z,-0.80
2023-02-04T19:59:27.515Z,-0.90
2023-02-04T20:01:59.831Z,-0.90
2023-02-04T20:04:29.943Z,-0.90
2023-02-04T20:06:56.468Z,-0.90
2023-02-04T20:09:25.106Z,-1.00
2023-02-04T20:11:51.668Z,-1.00
2023-02-04T20:14:42.672Z,-1.00
2023-02-04T20:17:14.965Z,-1.00
2023-02-04T20:19:42.422Z,-0.90
2023-02-04T20:22:18.133Z,-0.80
2023-02-04T20:24:46.057Z,-0.80
2023-02-04T20:27:19.296Z,-0.70
2023-02-04T20:29:46.680Z,-0.60
2023-02-04T20:32:19.306Z,-0.60
2023-02-04T20:34:46.177Z,-0.60
2023-02-04T20:37:19.861Z,-0.50
2023-02-04T20:39:46.403Z,-0.50
2023-02-04T20:42:25.494Z,-0.50
2023-02-04T20:44:52.400Z,-0.40
2023-02-04T20:47:20.445Z,-0.20
2023-02-04T20:49:55.376Z,-0.20
2023-02-04T20:52:54.110Z,-0.20
2023-02-04T20:55:25.034Z,-0.20
2023-02-04T20:58:13.486Z,-0.20
2023-02-04T21:00:40.197Z,-0.10
2023-02-04T21:03:12.915Z,-0.10
2023-02-04T21:05:40.004Z,0.00
2023-02-04T21:08:27.802Z,0.00
2023-02-04T21:10:54.519Z,0.10
2023-02-04T21:13:21.059Z,0.20
2023-02-04T21:15:47.787Z,0.20
2023-02-04T21:18:14.394Z,0.20
2023-02-04T21:20:40.972Z,0.20
2023-02-04T21:23:08.887Z,0.10
2023-02-04T21:25:35.584Z,0.10
2023-02-04T21:28:35.276Z,0.10
2023-02-04T21:30:52.285Z,0.10
2023-02-04T21:33:19.529Z,0.10
2023-02-04T21:35:46.237Z,0.20
2023-02-04T21:38:12.787Z,0.20
2023-02-04T21:40:39.613Z,0.10
2023-02-04T21:43:08.030Z,0.10
2023-02-04T21:45:36.055Z,0.00
2023-02-04T21:48:02.872Z,0.00
2023-02-04T21:50:29.472Z,0.00
2023-02-04T21:52:56.098Z,0.00
2023-02-04T21:55:22.868Z,0.10
2023-02-04T21:57:50.176Z,0.00
2023-02-04T22:00:17.564Z,0.00
2023-02-04T22:02:44.115Z,0.10
2023-02-04T22:05:11.300Z,0.10
2023-02-04T22:07:38.358Z,0.00
2023-02-04T22:10:06.199Z,0.00
2023-02-04T22:12:32.728Z,-0.10
2023-02-04T22:15:04.137Z,-0.10
2023-02-04T22:17:31.065Z,-0.10
2023-02-04T22:19:57.616Z,-0.10
2023-02-04T22:22:24.187Z,-0.10
2023-02-04T22:24:50.757Z,-0.10
2023-02-04T22:27:17.250Z,0.00
2023-02-04T22:29:43.842Z,0.00
2023-02-04T22:32:10.415Z,0.00
2023-02-04T22:34:37.088Z,-0.10
2023-02-04T22:37:03.649Z,0.00
2023-02-04T22:39:30.258Z,0.00
2023-02-04T22:41:56.865Z,0.00
2023-02-04T22:44:23.456Z,-0.10
2023-02-04T22:46:50.062Z,-0.10
2023-02-04T22:49:16.683Z,-0.10
2023-02-04T22:51:43.250Z,-0.10
2023-02-04T22:54:09.822Z,-0.10
2023-02-04T22:56:36.323Z,-0.20
2023-02-04T22:59:07.425Z,-0.20
2023-02-04T23:01:35.122Z,-0.20
2023-02-04T23:04:01.764Z,-0.20
2023-02-04T23:06:28.370Z,-0.30
2023-02-04T23:08:54.966Z,-0.20
2023-02-04T23:11:23.148Z,-0.20
2023-02-04T23:13:50.276Z,-0.20
2023-02-04T23:16:17.082Z,-0.20
2023-02-04T23:18:43.618Z,-0.20
2023-02-04T23:21:10.191Z,-0.30
2023-02-04T23:23:37.196Z,-0.30
2023-02-04T23:26:03.949Z,-0.20
2023-02-04T23:28:30.992Z,-0.30
2023-02-04T23:30:57.969Z,-0.30
2023-02-04T23:33:24.545Z,-0.30
2023-02-04T23:35:51.333Z,-0.30
2023-02-04T23:38:18.056Z,-0.30
2023-02-04T23:40:44.627Z,-0.20
2023-02-04T23:43:11.356Z,-0.20
2023-02-04T23:45:38.017Z,-0.20
2023-02-04T23:48:05.194Z,-0.30
2023-02-04T23:50:31.742Z,-0.20
2023-02-04T23:52:58.439Z,-0.30
2023-02-04T23:55:25.131Z,-0.20
2023-02-04T23:57:51.865Z,-0.10
